Jackson, MI

1:02 PM EDT on April 27, 2017 (GMT -0400)
Weather Davis | | Change Station

Elev 1008 ft 42.24 °N, 84.25 °W | Updated 3 seconds ago

Overcast
Overcast
62.4 °F
Feels Like 62.4 °F
N
7.6
Wind Variable Wind from South
Gusts 8.3 mph

Today
High -- | Low -- °F
--% Chance of Precip.
Yesterday
High -- | Low -- °F
Precip. -- in
Pressure 29.49 in
Visibility 10.0 miles
Clouds Few 1800 ft
Mostly Cloudy 3200 ft
Overcast 6500 ft
Dew Point 60 °F
Humidity 91%
Rainfall 0.07 in
Snow Depth Not available.
6:37 AM 8:32 PM
New Moon, 2% visible
METAR KJXN 271656Z 24018G27KT 10SM FEW018 BKN032 OVC065 18/13 A2950 RMK AO2 PK WND 25027/1656 RAB17E43 SLP987 P0024 T01780128
Pressure 29.49 in
Visibility 10.0 miles
Clouds Few 1800 ft
Mostly Cloudy 3200 ft
Overcast 6500 ft
Dew Point 60 °F
Humidity 91%
Rainfall 0.07 in
Snow Depth Not available.
6:37 AM 8:32 PM
New Moon, 2% visible
METAR KJXN 271656Z 24018G27KT 10SM FEW018 BKN032 OVC065 18/13 A2950 RMK AO2 PK WND 25027/1656 RAB17E43 SLP987 P0024 T01780128

Get Severe Weather Alerts

Thanks for signing up!

Be on the lookout for a verification email in your inbox.

You'll start receiving the daily forecast at 8 AM.

×

10-Day Weather Forecast

Almanac

Astronomy

Apr. 27, 2017 Rise Set
Actual Time
Civil Twilight
Nautical Twilight
Astronomical Twilight
Moon
Length of Visible Light
Length of Day
Tomorrow will be .
, % of the Moon is Illuminated

Today's Extremes

State Highs State Lows

Community

WunderPhotos

WunderBlog® & News

Nearby

Air Quality

  Air Quality AQ Index Pollutant
Not available.

Snow Depth

Station Depth Elevation

Earthquake Activity

City Distance Mag. Time & Date
Minimum magnitude displayed is 2.5.

Coastal Water Temperatures

Place Temperature

Stations

Nearby Weather Stations

Station Location Temp. Windchill Dew Point Humidity Wind Precip. Elev Updated Type
                   

Watches & Warnings

There are currently no watches in effect.